Reading, Illinois
Current Conditions -  °F | °C
As of 12:15 AM on Thursday 23 Oct 2014 (Local Time) from KPNT Reporting Station
Clear Clear  
Wind Chill: 30°   Ceiling: Unl
Heat Index: 36°   Visibility: 10mi
Dew Point: 33°   Wind: 7mph
Humidity: 92%   Direction: 120°ESE
Pressure: 30.26"   Gusts: NA
Location:  41.0465°N, 88.8725°W
Report Text: KPNT 230515Z AUTO 12006KT 10SM CLR 02/01 A3026 RMK AO2 T00200008
Loading
Personal Weather Stations






























Interactive Weather Map New forecast layout! Learn more

10-Day Weather Forecast

Advertisements
Track Severe Weather on mobile